Terminal Aerodrome Forecast
Issued by NWS Louisville, KY

Home | Current Version | Previous Version | Text Only | Print | Product List | Glossary On
Versions: 1 2 3 4 5 6 7 8 9 10 11 12 13 14 15 16
863
FTUS43 KLMK 280527
TAFBWG
TAF
KBWG 280527Z 2806/2906 VRB03KT P6SM SCT200
     FM281400 16010KT P6SM BKN250
     FM282000 19014G23KT P6SM VCSH SCT050 PROB30 2820/2823 -TSRA
      BKN040CB
     FM290000 18010KT P6SM BKN035=

USA.gov is the U.S. government's official web portal to all federal, state and local government web resources and services.